AirNav   Get $300 off a Bose A20 Aviation Headset
 
 1027 users online  

9MO1 Missouri Baptist Hospital Heliport
St Louis, Missouri, USA

GOING TO ST LOUIS?


FAA INFORMATION EFFECTIVE 12 SEPTEMBER 2019

Location

FAA Identifier: 9MO1
Lat/Long: 38-38-08.1800N 090-26-43.3800W
38-38.136333N 090-26.723000W
38.6356056,-90.4453833
(estimated)
Elevation: 713 ft. / 217 m (estimated)
Variation: 02E (1985)
Time zone: UTC -5 (UTC -6 during Standard Time)
Zip code: 63131

Heliport Operations

Heliport use: Private use, MEDICAL.
Activation date: 06/1974
Control tower: no
ARTCC: KANSAS CITY CENTER
FSS: SAINT LOUIS FLIGHT SERVICE STATION
Attendance: CONTINUOUS
Wind indicator: yes
Segmented circle: no

Heliport Communications

WX ASOS at STL (8 nm NE): PHONE 314-890-4790
WX ASOS at SUS (10 nm W): 134.8 (314-890-7255)
WX ASOS at CPS (14 nm E): PHONE 618-332-0001
WX ASOS at SET (18 nm N): 118.075 (636-250-4590)

Nearby radio navigation aids

VOR radial/distance  VOR name  Freq  Var
STLr172/13.6ST LOUIS VORTAC117.4001E
FTZr093/24.9FORISTELL VORTAC110.8005E
TOYr252/25.4TROY VORTAC116.0004E

 
NDB name  Hdg/Dist  Freq  Var  ID
EAVES119/5.422701WFZ ..-. --..
OBLIO173/10.033801WLM .-.. --
ZUMAY221/12.040401WST ... -
CIVIC MEMORIAL231/23.826301WCVM -.-. ...- --

Heliport Services

Runway Information

Helipad H1

Dimensions: 45 x 44 ft. / 14 x 13 m
Surface: mats
Latitude: 38-38.136333N
Longitude: 090-26.723000W
Elevation: 713.0 ft.
Traffic pattern: leftleft

Heliport Ownership and Management from official FAA records

Ownership: Privately-owned
Owner: MISSOURI BAPTIST HOSPITAL
3015 N BALLAS RD
ST LOUIS, MO 63131
Phone 314-996-5253
Manager: KEITH STUMPF
3015 N BALLAS RD
ST LOUIS, MO 63131
Phone 314-996-5253

Additional Remarks

INGRESS/EGRESS LIMITED FROM H1 FROM 355 DEG CLOCKWISE TO 175 DEG, RELATIVE TO TRUE NORTH.
FOR CD CTC ST LOUIS APCH AT 314-890-1018.

Instrument Procedures

There are no published instrument procedures at 9MO1.

Some nearby airports with instrument procedures:

1H0 - Creve Coeur Airport (6 nm NW)
KSTL - St Louis Lambert International Airport (8 nm NE)
KSUS - Spirit of St Louis Airport (10 nm W)
KCPS - St Louis Downtown Airport (14 nm E)
KSET - St Charles County Smartt Airport (18 nm N)
 
Loc | Ops | Rwys | IFR | FBO | Links
Com | Nav | Svcs | Stats | Notes

Kansas City Aviation Department
 
Area around 9MO1 (Missouri Baptist Hospital Heliport)
 
Road maps at: MapQuest Bing Google
 
Aerial photo
No photo
 
Sectional chart

 
Airport distance calculator
Flying to Missouri Baptist Hospital Heliport? Find the distance to fly.

From to 9MO1

Sunrise and sunset
Times for 21-Sep-2019
 Local
(UTC-5)
 Zulu
(UTC)
Morning civil twilight06:2311:23
Sunrise06:5011:50
Sunset19:0000:00
Evening civil twilight19:2700:27

Current date and time
Zulu (UTC)  21-Sep-2019 16:51:16
Local (UTC-5)  21-Sep-2019 11:51:16
 
METAR
KSTL 
8nm NE 
211551Z 20015G23KT 10SM BKN080 BKN130 26/19 A3013 RMK AO2 SLP190 T02560189 $
KSUS 
10nm W 
211554Z 19007G19KT 10SM FEW075 SCT110 26/20 A3011 RMK AO2 SLP187 T02560200
KCPS 
14nm E 
211553Z 18012G18KT 10SM FEW039 FEW060 BKN075 25/19 A3014 RMK AO2 RAB16E41 SLP201 P0000 T02500194
KSET 
18nm N 
211554Z AUTO A3010 RMK AO2 SLPNO PWINO $
TAF
KSTL 
8nm NE 
211120Z 2112/2218 18010KT P6SM VCSH OVC060 FM211500 18011G18KT P6SM BKN060 FM211700 19012G21KT P6SM VCSH BKN060 FM220000 17010KT P6SM BKN100 FM221500 20011G17KT P6SM BKN080
KSUS 
10nm W 
211120Z 2112/2212 18008KT P6SM VCSH OVC060 FM211700 19010G19KT P6SM VCSH BKN060 FM220000 18007KT P6SM BKN100 FM220600 19008KT P6SM VCSH BKN250
KCPS 
14nm E 
211120Z 2112/2212 17008KT P6SM VCSH BKN060 FM211500 18011G18KT P6SM BKN060 FM211700 19012G21KT P6SM VCSH BKN060 FM220000 17008KT P6SM BKN120 FM220900 18008KT P6SM VCSH SCT250
NOTAMs
Click for the latest NOTAMs
NOTAMs are issued by the DoD/FAA and will open in a separate window not controlled by AirNav.

 

 
 

Would you like to see your business listed on this page?

 If your business provides an interesting product or service to pilots, flight crews, aircraft, or users of the Missouri Baptist Hospital Heliport, you should consider listing it here.  To start the listing process, click on the button below
 
Add a business
 

Other Pages about Missouri Baptist Hospital Heliport

Update a link
 
Copyright © AirNav, LLC. All rights reserved. Privacy Policy  Contact